Time;durP1;ratioP1;P1;durP2;ratioP2;P2;SDS_P1;SDS_P2;PMS_P1;PMS_P2;Temp;Humidity;BMP_temperature;BMP_pressure;BME280_temperature;BME280_humidity;BME280_pressure;Samples;Min_cycle;Max_cycle;Signal;HPM_P1;HPM_P2
2022/08/29 00:00:58;;;;;;;8.05;1.98;;;17.10;99.90;;;;;;5082434;28;20514;-68
2022/08/29 00:03:25;;;;;;;5.25;1.98;;;17.10;99.90;;;;;;5081010;28;20052;-68
2022/08/29 00:05:52;;;;;;;8.18;3.00;;;17.10;99.90;;;;;;5085997;28;20071;-69
2022/08/29 00:08:20;;;;;;;5.15;1.65;;;17.00;99.90;;;;;;5080759;28;20048;-69
2022/08/29 00:10:47;;;;;;;6.53;2.58;;;17.00;99.90;;;;;;5085485;28;20154;-66
2022/08/29 00:13:15;;;;;;;5.65;1.83;;;16.90;99.90;;;;;;5085668;28;20139;-66
2022/08/29 00:15:42;;;;;;;5.65;2.13;;;16.90;99.90;;;;;;5084671;28;20117;-66
2022/08/29 00:18:12;;;;;;;6.25;2.20;;;16.80;99.90;;;;;;5083810;28;20393;-70
2022/08/29 00:20:40;;;;;;;8.93;3.05;;;16.80;99.90;;;;;;5078505;28;20143;-68
2022/08/29 00:23:08;;;;;;;6.40;1.70;;;16.80;99.90;;;;;;5082667;28;20040;-69
2022/08/29 00:25:35;;;;;;;8.93;4.18;;;16.80;99.90;;;;;;5075576;28;20829;-65
2022/08/29 00:28:02;;;;;;;4.72;1.80;;;16.70;99.90;;;;;;5084116;28;20046;-69
2022/08/29 00:30:30;;;;;;;7.25;2.80;;;16.70;99.90;;;;;;5078922;28;20121;-67
2022/08/29 00:32:57;;;;;;;8.10;3.15;;;16.60;99.90;;;;;;5085669;28;20130;-66
2022/08/29 00:35:34;;;;;;;9.18;2.50;;;16.60;99.90;;;;;;5077286;28;20109;-65
2022/08/29 00:38:03;;;;;;;5.80;2.35;;;16.60;99.90;;;;;;5078660;28;20530;-68
2022/08/29 00:40:41;;;;;;;6.70;2.50;;;16.50;99.90;;;;;;5084787;28;20048;-66
2022/08/29 00:43:10;;;;;;;8.02;2.38;;;16.50;99.90;;;;;;5082056;28;20062;-66
2022/08/29 00:45:49;;;;;;;4.22;2.45;;;16.50;99.90;;;;;;5073010;28;20433;-68
2022/08/29 00:48:17;;;;;;;3.22;2.17;;;16.40;99.90;;;;;;5082432;28;20098;-67
2022/08/29 00:50:51;;;;;;;4.22;3.20;;;16.40;99.90;;;;;;5084953;28;20070;-67
2022/08/29 00:53:28;;;;;;;2.75;2.03;;;16.40;99.90;;;;;;5084771;28;20068;-66
2022/08/29 00:55:56;;;;;;;6.63;2.53;;;16.40;99.90;;;;;;5084417;28;20052;-66
2022/08/29 00:58:40;;;;;;;4.88;1.85;;;16.40;99.90;;;;;;5082123;28;20519;-68
2022/08/29 01:01:09;;;;;;;11.20;3.33;;;16.30;99.90;;;;;;5084662;28;20546;-65
2022/08/29 01:03:36;;;;;;;5.45;2.22;;;16.30;99.90;;;;;;5083342;28;20556;-65
2022/08/29 01:06:10;;;;;;;5.53;2.78;;;16.30;99.90;;;;;;5081763;28;20040;-66
2022/08/29 01:08:37;;;;;;;8.95;2.28;;;16.30;99.90;;;;;;5084689;28;21189;-67
2022/08/29 01:13:53;;;;;;;6.13;2.95;;;16.30;99.90;;;;;;5084357;28;20123;-65
2022/08/29 01:16:22;;;;;;;9.00;2.30;;;16.20;99.90;;;;;;5082009;28;20524;-69
2022/08/29 01:18:55;;;;;;;3.80;2.90;;;16.30;99.90;;;;;;5083476;28;20527;-66
2022/08/29 01:21:40;;;;;;;8.85;3.05;;;16.20;99.90;;;;;;5077617;28;20079;-67
2022/08/29 01:24:32;;;;;;;7.32;2.45;;;16.20;99.90;;;;;;5082046;28;20068;-70
2022/08/29 01:26:59;;;;;;;5.95;2.33;;;16.20;99.90;;;;;;5083632;28;20470;-65
2022/08/29 01:29:27;;;;;;;5.28;1.63;;;16.20;99.90;;;;;;5084152;28;20052;-67
2022/08/29 01:31:54;;;;;;;5.50;3.17;;;16.20;99.90;;;;;;5081533;28;20461;-66
2022/08/29 01:34:26;;;;;;;4.80;1.83;;;16.10;99.90;;;;;;5082235;28;20048;-71
2022/08/29 01:36:56;;;;;;;4.40;1.92;;;16.20;99.90;;;;;;5043003;28;20175;-68
2022/08/29 01:39:26;;;;;;;4.43;2.85;;;16.10;99.90;;;;;;5043820;28;20068;-68
2022/08/29 01:41:54;;;;;;;8.15;2.22;;;16.20;99.90;;;;;;5041639;28;20145;-67
2022/08/29 01:44:24;;;;;;;5.47;2.13;;;16.10;99.90;;;;;;5038862;28;20076;-69
2022/08/29 01:46:55;;;;;;;8.95;2.13;;;16.10;99.90;;;;;;5039784;28;20125;-69
2022/08/29 01:49:30;;;;;;;7.45;2.65;;;16.10;99.90;;;;;;5043890;28;20047;-68
2022/08/29 01:51:56;;;;;;;7.47;1.80;;;16.10;99.90;;;;;;5043771;28;20131;-67
2022/08/29 01:54:23;;;;;;;6.72;2.53;;;16.10;99.90;;;;;;5042302;28;20535;-68
2022/08/29 01:56:52;;;;;;;3.78;1.98;;;16.10;99.90;;;;;;5043956;28;20205;-65
2022/08/29 01:59:22;;;;;;;3.45;2.10;;;16.10;99.90;;;;;;5043070;28;20106;-67
2022/08/29 02:01:56;;;;;;;8.30;2.40;;;16.10;99.90;;;;;;5042968;28;20048;-65
2022/08/29 02:04:24;;;;;;;7.68;1.88;;;16.10;99.90;;;;;;5042116;28;20044;-65
2022/08/29 02:06:51;;;;;;;6.28;2.30;;;16.10;99.90;;;;;;5043461;28;20077;-70
2022/08/29 02:09:18;;;;;;;6.25;3.88;;;16.10;99.90;;;;;;5043033;28;20053;-68
2022/08/29 02:11:47;;;;;;;6.65;3.88;;;16.10;99.90;;;;;;5043413;28;20598;-65
2022/08/29 02:14:14;;;;;;;3.45;2.03;;;16.10;99.90;;;;;;5046136;28;20069;-65
2022/08/29 02:16:46;;;;;;;6.30;2.95;;;16.10;99.90;;;;;;5041583;28;20040;-66
2022/08/29 02:19:13;;;;;;;3.85;2.13;;;16.10;99.90;;;;;;5043713;28;20148;-67
2022/08/29 02:21:41;;;;;;;7.85;1.80;;;16.00;99.90;;;;;;5039934;28;20048;-65
2022/08/29 02:24:08;;;;;;;5.60;2.00;;;16.10;99.90;;;;;;5036632;28;20049;-66
2022/08/29 02:26:51;;;;;;;8.30;2.90;;;16.10;99.90;;;;;;5045784;28;20127;-66
2022/08/29 02:29:18;;;;;;;7.03;2.83;;;16.10;99.90;;;;;;5043373;28;20041;-71
2022/08/29 02:31:45;;;;;;;3.22;2.08;;;16.10;99.90;;;;;;5042587;28;20076;-69
2022/08/29 02:34:12;;;;;;;3.55;2.28;;;16.10;99.90;;;;;;5041397;28;20776;-66
2022/08/29 02:36:39;;;;;;;4.90;2.70;;;16.10;99.90;;;;;;5059911;28;20044;-67
2022/08/29 02:39:08;;;;;;;5.85;2.20;;;16.10;99.90;;;;;;5083471;28;20131;-68
2022/08/29 02:41:36;;;;;;;5.68;2.53;;;16.10;99.90;;;;;;5079233;28;20048;-66
2022/08/29 02:44:04;;;;;;;6.65;1.92;;;16.10;99.90;;;;;;5081223;28;20048;-66
2022/08/29 02:46:31;;;;;;;6.95;2.75;;;16.10;99.90;;;;;;5083430;28;20040;-66
2022/08/29 02:48:58;;;;;;;3.75;1.70;;;16.10;99.90;;;;;;5083335;28;20047;-65
2022/08/29 02:51:30;;;;;;;3.85;1.63;;;16.10;99.90;;;;;;5079443;28;20147;-66
2022/08/29 02:53:58;;;;;;;7.55;1.67;;;16.10;99.90;;;;;;5080287;28;20037;-65
2022/08/29 02:56:25;;;;;;;3.00;1.73;;;16.10;99.90;;;;;;5081158;28;20131;-69
2022/08/29 02:58:52;;;;;;;3.90;1.77;;;16.10;99.90;;;;;;5082732;28;20144;-66
2022/08/29 03:01:21;;;;;;;4.68;1.67;;;16.10;99.90;;;;;;5081555;28;20382;-65
2022/08/29 03:03:49;;;;;;;7.83;2.00;;;16.10;99.90;;;;;;5082615;28;20075;-71
2022/08/29 03:06:17;;;;;;;4.88;1.70;;;16.10;99.90;;;;;;5078488;28;20351;-68
2022/08/29 03:08:45;;;;;;;5.18;1.60;;;16.10;99.90;;;;;;5083128;28;20128;-73
2022/08/29 03:11:12;;;;;;;6.70;1.83;;;16.10;99.90;;;;;;5080012;28;20115;-66
2022/08/29 03:13:39;;;;;;;6.22;3.05;;;16.10;99.90;;;;;;5083494;28;20044;-65
2022/08/29 03:16:07;;;;;;;3.88;2.58;;;16.10;99.90;;;;;;5079898;28;20044;-69
2022/08/29 03:18:35;;;;;;;6.20;2.05;;;16.10;99.90;;;;;;5083011;28;20113;-64
2022/08/29 03:21:01;;;;;;;7.32;3.03;;;16.10;99.90;;;;;;5084713;28;20068;-69
2022/08/29 03:23:28;;;;;;;8.43;2.30;;;16.10;99.90;;;;;;5087081;28;20523;-68
2022/08/29 03:25:55;;;;;;;5.07;1.55;;;16.10;99.90;;;;;;5085401;28;20116;-71
2022/08/29 03:28:22;;;;;;;2.67;1.52;;;16.10;99.90;;;;;;5085025;28;20048;-66
2022/08/29 03:30:49;;;;;;;6.00;2.22;;;16.00;99.90;;;;;;5083237;28;20132;-67
2022/08/29 03:33:17;;;;;;;7.65;2.35;;;16.10;99.90;;;;;;5084133;28;20052;-68
2022/08/29 03:35:44;;;;;;;3.05;1.65;;;16.10;99.90;;;;;;5081895;28;20083;-68
2022/08/29 03:38:10;;;;;;;6.13;1.40;;;16.10;99.90;;;;;;5081087;28;20126;-70
2022/08/29 03:40:41;;;;;;;2.45;1.70;;;16.10;99.90;;;;;;5082976;28;20040;-65
2022/08/29 03:43:08;;;;;;;6.47;1.58;;;16.10;99.90;;;;;;5080615;28;20040;-66
2022/08/29 03:45:36;;;;;;;2.83;1.73;;;16.10;99.90;;;;;;5086022;28;20055;-69
2022/08/29 03:48:03;;;;;;;5.70;2.70;;;16.00;99.90;;;;;;5084295;28;20044;-69
2022/08/29 03:50:30;;;;;;;4.53;1.63;;;16.10;99.90;;;;;;5085079;28;20201;-65
2022/08/29 03:52:58;;;;;;;7.80;1.40;;;16.10;99.90;;;;;;5086901;28;20051;-66
2022/08/29 03:55:25;;;;;;;5.13;1.85;;;16.10;99.90;;;;;;5084307;28;20063;-66
2022/08/29 03:57:54;;;;;;;2.53;1.40;;;16.10;99.90;;;;;;5081168;28;20052;-68
2022/08/29 04:00:21;;;;;;;1.92;1.38;;;16.00;99.90;;;;;;5083754;28;20451;-68
2022/08/29 04:02:50;;;;;;;3.85;1.35;;;16.10;99.90;;;;;;5082854;28;20419;-69
2022/08/29 04:05:17;;;;;;;5.65;1.30;;;16.10;99.90;;;;;;5085430;28;20039;-67
2022/08/29 04:07:53;;;;;;;2.72;1.17;;;16.00;99.90;;;;;;5083789;28;20040;-65
2022/08/29 04:10:25;;;;;;;1.98;1.60;;;16.10;99.90;;;;;;5083564;28;20071;-65
2022/08/29 04:12:52;;;;;;;3.00;0.98;;;16.00;99.90;;;;;;5082202;28;20044;-67
2022/08/29 04:15:25;;;;;;;4.00;1.38;;;16.10;99.90;;;;;;5084828;28;20048;-65
2022/08/29 04:17:54;;;;;;;3.38;1.60;;;16.10;99.90;;;;;;5085837;28;20085;-65
2022/08/29 04:20:23;;;;;;;3.88;1.58;;;16.10;99.90;;;;;;5083562;28;20044;-69
2022/08/29 04:22:53;;;;;;;3.88;2.28;;;16.10;99.90;;;;;;5084203;28;20063;-69
2022/08/29 04:25:21;;;;;;;3.58;1.40;;;16.00;99.90;;;;;;5085989;28;20143;-66
2022/08/29 04:27:48;;;;;;;3.78;1.42;;;16.00;99.90;;;;;;5066487;28;20168;-66
2022/08/29 04:30:19;;;;;;;2.65;1.27;;;16.00;99.90;;;;;;5082786;28;20101;-71
2022/08/29 04:32:46;;;;;;;2.25;1.25;;;16.00;99.90;;;;;;5085014;28;20067;-66
2022/08/29 04:35:14;;;;;;;6.25;1.65;;;16.00;99.90;;;;;;5084155;28;20181;-69
2022/08/29 04:37:42;;;;;;;2.00;1.00;;;16.00;99.90;;;;;;5084701;28;20067;-69
2022/08/29 04:40:12;;;;;;;4.18;1.00;;;16.00;99.90;;;;;;5082794;28;20117;-67
2022/08/29 04:42:39;;;;;;;0.93;0.73;;;16.00;99.90;;;;;;5081564;28;20059;-68
2022/08/29 04:45:10;;;;;;;3.67;1.20;;;16.00;99.90;;;;;;5085217;28;20048;-69
2022/08/29 04:47:38;;;;;;;1.42;0.88;;;16.00;99.90;;;;;;5078850;28;20120;-68
2022/08/29 04:50:07;;;;;;;1.88;1.05;;;16.00;99.90;;;;;;5080794;28;20075;-70
2022/08/29 04:52:35;;;;;;;5.70;1.17;;;16.00;99.90;;;;;;5080518;28;20059;-66
2022/08/29 04:55:04;;;;;;;5.25;1.25;;;16.00;99.90;;;;;;5085443;28;20054;-70
2022/08/29 04:57:33;;;;;;;2.55;1.67;;;16.00;99.90;;;;;;5061143;28;20145;-69
2022/08/29 05:00:01;;;;;;;4.45;1.60;;;16.00;99.90;;;;;;5081799;28;20040;-67
2022/08/29 05:02:27;;;;;;;5.15;1.17;;;16.00;99.90;;;;;;5083391;28;20093;-69
2022/08/29 05:04:55;;;;;;;2.63;1.20;;;16.00;99.90;;;;;;5084523;28;20108;-66
2022/08/29 05:07:24;;;;;;;2.92;0.90;;;16.00;99.90;;;;;;5084431;28;20051;-68
2022/08/29 05:09:59;;;;;;;2.08;0.90;;;16.00;99.90;;;;;;5085587;28;20039;-70
2022/08/29 05:12:28;;;;;;;0.95;0.68;;;16.00;99.90;;;;;;5083116;28;20066;-67
2022/08/29 05:14:56;;;;;;;4.85;1.38;;;16.00;99.90;;;;;;5066995;28;20036;-70
2022/08/29 05:17:23;;;;;;;0.95;0.73;;;16.00;99.90;;;;;;5082646;28;20619;-68
2022/08/29 05:19:50;;;;;;;2.28;0.77;;;16.00;99.90;;;;;;5083586;28;20457;-69
2022/08/29 05:22:21;;;;;;;3.60;0.82;;;16.00;99.90;;;;;;5080097;28;20075;-66
2022/08/29 05:24:48;;;;;;;1.88;1.27;;;16.00;99.90;;;;;;5084520;28;20460;-67
2022/08/29 05:27:20;;;;;;;3.40;1.73;;;16.00;99.90;;;;;;5083890;28;20131;-67
2022/08/29 05:29:50;;;;;;;4.00;1.25;;;16.00;99.90;;;;;;5084496;28;20425;-66
2022/08/29 05:32:18;;;;;;;6.15;2.40;;;16.00;99.90;;;;;;5081836;28;20048;-68
2022/08/29 05:34:47;;;;;;;2.50;0.98;;;16.00;99.90;;;;;;5084376;28;20128;-69
2022/08/29 05:37:18;;;;;;;3.40;1.70;;;16.00;99.90;;;;;;5083296;28;20093;-65
2022/08/29 05:39:46;;;;;;;6.40;2.53;;;16.00;99.90;;;;;;5084828;28;20105;-67
2022/08/29 05:42:16;;;;;;;3.20;1.88;;;16.00;99.90;;;;;;5081440;28;20063;-67
2022/08/29 05:44:43;;;;;;;2.05;1.52;;;16.00;99.90;;;;;;5080878;28;20043;-67
2022/08/29 05:47:12;;;;;;;4.10;1.98;;;16.00;99.90;;;;;;5082051;28;20044;-66
2022/08/29 05:49:42;;;;;;;6.10;1.55;;;16.00;99.90;;;;;;5085004;28;20088;-65
2022/08/29 05:52:10;;;;;;;2.93;1.10;;;16.10;99.90;;;;;;5079508;28;20097;-67
2022/08/29 05:54:39;;;;;;;4.82;1.38;;;16.00;99.90;;;;;;5084849;28;20090;-65
2022/08/29 05:57:08;;;;;;;7.60;1.45;;;16.00;99.90;;;;;;5081145;28;20443;-68
2022/08/29 05:59:35;;;;;;;2.72;1.02;;;16.10;99.90;;;;;;5083816;28;20044;-65
2022/08/29 06:02:03;;;;;;;4.63;1.27;;;16.00;99.90;;;;;;5081125;28;20127;-67
2022/08/29 06:04:30;;;;;;;1.77;1.10;;;16.10;99.90;;;;;;5065916;28;20175;-66
2022/08/29 06:06:57;;;;;;;4.43;1.10;;;16.00;99.90;;;;;;5080079;28;20086;-69
2022/08/29 06:09:24;;;;;;;4.43;1.15;;;16.10;99.90;;;;;;5082014;28;20076;-67
2022/08/29 06:11:52;;;;;;;6.28;2.13;;;16.10;99.90;;;;;;5083789;28;20530;-69
2022/08/29 06:14:20;;;;;;;6.68;0.80;;;16.10;99.90;;;;;;5079889;28;20040;-67
2022/08/29 06:16:47;;;;;;;4.80;0.88;;;16.10;99.90;;;;;;5074417;28;20079;-66
2022/08/29 06:19:13;;;;;;;9.27;1.00;;;16.10;99.90;;;;;;5083170;28;20552;-67
2022/08/29 06:21:41;;;;;;;2.03;0.90;;;16.10;99.90;;;;;;5081835;28;20431;-67
2022/08/29 06:24:08;;;;;;;4.22;1.10;;;16.10;99.90;;;;;;5073968;28;20077;-67
2022/08/29 06:26:36;;;;;;;0.95;0.70;;;16.10;99.90;;;;;;5084099;28;20610;-65
2022/08/29 06:29:05;;;;;;;3.90;0.93;;;16.20;99.90;;;;;;5083957;28;20283;-68
2022/08/29 06:31:32;;;;;;;1.92;0.80;;;16.20;99.90;;;;;;5083836;28;20135;-70
2022/08/29 06:34:03;;;;;;;5.43;1.27;;;16.20;99.90;;;;;;5073544;28;20349;-68
2022/08/29 06:36:31;;;;;;;3.10;1.67;;;16.20;99.90;;;;;;5082811;28;20044;-65
2022/08/29 06:38:59;;;;;;;1.98;1.52;;;16.20;99.90;;;;;;5079499;28;20116;-68
2022/08/29 06:41:28;;;;;;;2.60;0.73;;;16.30;99.90;;;;;;5082867;28;20489;-67
2022/08/29 06:43:59;;;;;;;3.22;1.02;;;16.30;99.90;;;;;;5063273;28;20339;-67
2022/08/29 06:46:35;;;;;;;5.43;0.93;;;16.30;99.90;;;;;;5081803;28;20070;-65
2022/08/29 06:49:05;;;;;;;2.65;0.60;;;16.30;99.90;;;;;;5079890;28;20580;-67
2022/08/29 06:51:35;;;;;;;4.78;1.50;;;16.30;99.90;;;;;;5083609;28;20059;-69
2022/08/29 06:54:04;;;;;;;4.88;1.42;;;16.30;99.90;;;;;;5082079;27;20032;-72
2022/08/29 06:56:33;;;;;;;7.88;1.23;;;16.30;99.90;;;;;;5089381;28;20040;-68
2022/08/29 06:59:03;;;;;;;4.65;1.15;;;16.40;99.90;;;;;;5069584;28;20140;-66
2022/08/29 07:01:30;;;;;;;2.88;1.25;;;16.40;99.90;;;;;;5087163;28;20138;-66
2022/08/29 07:04:00;;;;;;;3.42;1.80;;;16.40;99.90;;;;;;5084504;28;20042;-67
2022/08/29 07:06:29;;;;;;;2.50;1.25;;;16.40;99.90;;;;;;5086978;28;20048;-65
2022/08/29 07:08:58;;;;;;;6.70;1.85;;;16.40;99.90;;;;;;5086364;28;20139;-65
2022/08/29 07:11:27;;;;;;;3.60;1.23;;;16.40;99.90;;;;;;5082242;28;20086;-66
2022/08/29 07:13:57;;;;;;;5.72;1.20;;;16.30;99.90;;;;;;5086905;28;20129;-66
2022/08/29 07:16:24;;;;;;;5.70;1.73;;;16.30;99.90;;;;;;5082911;28;20347;-66
2022/08/29 07:18:52;;;;;;;2.92;1.65;;;16.30;99.90;;;;;;5087069;28;20054;-67
2022/08/29 07:21:22;;;;;;;2.90;1.05;;;16.30;99.90;;;;;;5086613;28;20143;-71
2022/08/29 07:23:50;;;;;;;5.10;1.50;;;16.20;99.90;;;;;;5086839;28;20139;-67
2022/08/29 07:26:23;;;;;;;3.88;1.40;;;16.30;99.90;;;;;;5085383;28;20101;-68
2022/08/29 07:28:53;;;;;;;6.72;1.17;;;16.30;99.90;;;;;;5081012;28;20072;-68
2022/08/29 07:31:20;;;;;;;5.82;1.63;;;16.20;99.90;;;;;;5085991;28;20067;-66
2022/08/29 07:33:47;;;;;;;4.32;1.23;;;16.20;99.90;;;;;;5064461;28;20304;-68
2022/08/29 07:36:32;;;;;;;6.13;1.25;;;16.20;99.90;;;;;;5082056;28;20048;-67
2022/08/29 07:39:02;;;;;;;3.75;1.00;;;16.20;99.90;;;;;;5067171;28;20068;-65
2022/08/29 07:41:29;;;;;;;5.07;1.20;;;16.20;99.90;;;;;;5084096;28;20072;-69
2022/08/29 07:43:56;;;;;;;8.13;0.88;;;16.20;99.90;;;;;;5084698;28;20040;-67
2022/08/29 07:46:25;;;;;;;1.85;1.10;;;16.20;99.90;;;;;;5084679;28;20064;-68
2022/08/29 07:48:53;;;;;;;2.78;1.10;;;16.20;99.90;;;;;;5085638;28;20040;-66
2022/08/29 07:51:22;;;;;;;1.20;0.77;;;16.20;99.90;;;;;;5085983;28;20443;-66
2022/08/29 07:53:50;;;;;;;1.77;1.00;;;16.20;99.90;;;;;;5080529;28;20045;-69
2022/08/29 07:56:22;;;;;;;1.45;0.98;;;16.20;99.90;;;;;;5084673;28;20056;-68
2022/08/29 07:58:50;;;;;;;3.83;1.48;;;16.20;99.90;;;;;;5077152;28;20118;-69
2022/08/29 08:01:18;;;;;;;4.53;1.83;;;16.20;99.90;;;;;;5085667;28;20109;-72
2022/08/29 08:03:48;;;;;;;3.25;0.80;;;16.20;99.90;;;;;;5080827;28;20047;-66
2022/08/29 08:06:18;;;;;;;3.10;1.30;;;16.30;99.90;;;;;;5063148;28;20048;-67
2022/08/29 08:08:45;;;;;;;2.15;0.90;;;16.30;99.90;;;;;;5067003;28;20052;-69
2022/08/29 08:11:13;;;;;;;2.20;0.85;;;16.20;99.90;;;;;;5066838;28;20319;-68
2022/08/29 08:13:40;;;;;;;1.48;0.63;;;16.20;99.90;;;;;;5085463;28;20075;-66
2022/08/29 08:16:12;;;;;;;4.28;1.10;;;16.20;99.90;;;;;;5083234;28;20113;-69
2022/08/29 08:18:40;;;;;;;4.10;1.27;;;16.30;99.90;;;;;;5085817;28;20036;-68
2022/08/29 08:21:08;;;;;;;1.75;1.15;;;16.30;99.90;;;;;;5085832;28;20055;-68
2022/08/29 08:23:36;;;;;;;5.45;1.20;;;16.30;99.90;;;;;;5060959;28;20087;-69
2022/08/29 08:26:03;;;;;;;1.50;0.80;;;16.30;99.90;;;;;;5083967;28;20051;-69
2022/08/29 08:28:31;;;;;;;2.80;0.70;;;16.30;99.90;;;;;;5086519;28;20469;-66
2022/08/29 08:30:59;;;;;;;1.80;1.00;;;16.30;99.90;;;;;;5085545;28;20044;-68
2022/08/29 08:33:33;;;;;;;3.45;1.10;;;16.30;99.90;;;;;;5084521;28;20469;-70
2022/08/29 08:36:04;;;;;;;4.60;1.63;;;16.40;99.90;;;;;;5083577;28;20400;-66
2022/08/29 08:38:31;;;;;;;;;;;16.40;99.90;;;;;;5085939;28;20161;-70
2022/08/29 08:41:19;;;;;;;3.92;1.25;;;16.30;99.90;;;;;;5082880;28;20509;-67
2022/08/29 08:43:56;;;;;;;3.80;1.48;;;16.30;99.90;;;;;;5060043;28;20071;-66
2022/08/29 08:46:35;;;;;;;2.10;0.73;;;16.30;99.90;;;;;;5077681;28;20040;-70
2022/08/29 08:49:07;;;;;;;1.63;1.10;;;16.30;99.90;;;;;;5079985;28;20047;-68
2022/08/29 08:51:37;;;;;;;2.85;1.05;;;16.30;99.90;;;;;;5080493;28;20047;-68
2022/08/29 08:54:11;;;;;;;8.33;1.47;;;16.30;99.90;;;;;;5082950;28;20687;-67
2022/08/29 08:56:42;;;;;;;4.30;1.23;;;16.30;99.90;;;;;;5086276;28;20633;-65
2022/08/29 08:59:14;;;;;;;1.83;0.80;;;16.20;99.90;;;;;;5079104;28;20047;-66
2022/08/29 09:01:55;;;;;;;12.27;1.60;;;16.30;99.90;;;;;;5084818;28;20051;-66
2022/08/29 09:04:32;;;;;;;3.28;2.08;;;16.20;99.90;;;;;;5077214;28;20059;-73
2022/08/29 09:07:38;;;;;;;5.22;1.63;;;16.20;99.90;;;;;;5083798;28;20136;-70
2022/08/29 09:10:15;;;;;;;2.42;1.08;;;16.10;99.90;;;;;;5068892;28;20098;-68
2022/08/29 09:13:10;;;;;;;7.57;1.30;;;16.10;99.90;;;;;;5084838;28;20398;-69
2022/08/29 09:15:41;;;;;;;6.53;1.98;;;16.00;99.90;;;;;;5081531;28;20043;-69
2022/08/29 09:18:24;;;;;;;7.90;2.60;;;16.00;99.90;;;;;;5085222;28;20104;-73
2022/08/29 09:20:53;;;;;;;20.38;2.20;;;15.90;99.90;;;;;;5076779;28;20124;-69
2022/08/29 09:23:38;;;;;;;2.95;1.67;;;15.90;99.90;;;;;;5082520;28;20369;-67
2022/08/29 09:26:06;;;;;;;5.25;2.15;;;15.80;99.90;;;;;;5083706;28;20058;-70
2022/08/29 09:28:33;;;;;;;6.53;1.30;;;15.70;99.90;;;;;;5084251;28;20036;-69
2022/08/29 09:31:21;;;;;;;3.83;1.60;;;15.70;99.90;;;;;;5077150;28;20093;-67
2022/08/29 09:33:58;;;;;;;3.50;1.20;;;15.70;99.90;;;;;;5084575;28;20509;-72
2022/08/29 09:36:33;;;;;;;6.45;2.03;;;15.60;99.90;;;;;;5082252;28;20123;-67
2022/08/29 09:39:30;;;;;;;6.47;1.40;;;15.50;99.90;;;;;;5080942;28;20109;-71
2022/08/29 09:42:12;;;;;;;3.00;1.33;;;15.50;99.90;;;;;;5079401;28;20470;-69
2022/08/29 09:44:42;;;;;;;5.50;1.73;;;15.40;99.90;;;;;;5082303;28;20492;-70
2022/08/29 09:47:18;;;;;;;3.50;1.13;;;15.40;99.90;;;;;;5083251;28;20458;-69
2022/08/29 09:50:06;;;;;;;4.82;2.55;;;15.30;99.90;;;;;;5074882;28;20098;-68
2022/08/29 09:52:34;;;;;;;2.97;1.50;;;15.20;99.90;;;;;;5063238;28;20473;-67
2022/08/29 09:55:23;;;;;;;3.63;2.58;;;15.20;99.90;;;;;;5079460;28;20086;-71
2022/08/29 09:57:55;;;;;;;3.17;1.17;;;15.20;99.90;;;;;;5079760;28;20067;-68
2022/08/29 10:00:30;;;;;;;3.15;1.65;;;15.10;99.90;;;;;;5080632;28;20076;-70
2022/08/29 10:03:02;;;;;;;1.85;1.17;;;15.10;99.90;;;;;;5083489;28;20067;-69
2022/08/29 10:05:41;;;;;;;3.60;1.05;;;15.00;99.90;;;;;;5083452;28;20491;-67
2022/08/29 10:08:23;;;;;;;3.80;1.45;;;15.00;99.90;;;;;;5080774;28;20147;-69
2022/08/29 10:10:57;;;;;;;6.22;1.30;;;15.00;99.90;;;;;;5083665;28;20406;-68
2022/08/29 10:13:46;;;;;;;4.97;1.10;;;15.00;99.90;;;;;;5082502;28;20549;-67
2022/08/29 10:16:21;;;;;;;2.35;2.20;;;14.90;99.90;;;;;;5081485;28;20048;-69
2022/08/29 10:18:53;;;;;;;2.55;1.20;;;14.90;99.90;;;;;;5084129;28;20362;-68
2022/08/29 10:21:47;;;;;;;5.68;2.67;;;14.90;99.90;;;;;;5083484;28;20036;-68
2022/08/29 10:24:24;;;;;;;5.85;1.38;;;14.90;99.90;;;;;;5072747;28;20179;-70
2022/08/29 10:27:29;;;;;;;1.63;1.08;;;14.90;99.90;;;;;;5080679;28;20039;-67
2022/08/29 10:30:33;;;;;;;10.95;2.65;;;14.90;99.90;;;;;;5070892;28;20127;-69
2022/08/29 10:33:28;;;;;;;3.58;1.33;;;14.90;99.90;;;;;;5082838;28;20047;-67
2022/08/29 10:36:07;;;;;;;3.80;1.98;;;14.80;99.90;;;;;;5082840;28;20058;-73
2022/08/29 10:38:48;;;;;;;3.53;1.10;;;14.80;99.90;;;;;;5082478;28;20105;-69
2022/08/29 10:41:21;;;;;;;6.40;1.27;;;14.80;99.90;;;;;;5082668;28;20040;-70
2022/08/29 10:44:16;;;;;;;3.75;1.65;;;14.80;99.90;;;;;;5082397;28;20176;-69
2022/08/29 10:46:51;;;;;;;4.07;1.92;;;14.80;99.90;;;;;;5078052;28;20044;-68
2022/08/29 10:49:37;;;;;;;7.60;1.33;;;14.80;99.90;;;;;;5082684;28;20052;-68
2022/08/29 10:52:22;;;;;;;4.78;1.48;;;14.80;99.90;;;;;;5080140;28;20067;-70
2022/08/29 10:54:58;;;;;;;5.80;2.17;;;14.90;99.90;;;;;;5083061;28;20060;-69
2022/08/29 10:57:28;;;;;;;4.78;1.45;;;15.00;99.90;;;;;;5083004;28;20477;-67
2022/08/29 11:00:07;;;;;;;2.10;1.27;;;15.00;99.90;;;;;;5083708;28;20040;-67
2022/08/29 11:02:45;;;;;;;10.38;2.78;;;15.10;99.90;;;;;;5082074;28;20073;-68
2022/08/29 11:05:18;;;;;;;6.53;1.15;;;15.20;99.90;;;;;;5082759;28;20440;-71
2022/08/29 11:07:55;;;;;;;4.03;2.00;;;15.20;99.90;;;;;;5081324;28;20039;-69
2022/08/29 11:10:40;;;;;;;7.45;1.80;;;15.30;99.90;;;;;;5080995;28;20036;-68
2022/08/29 11:13:14;;;;;;;3.90;2.00;;;15.30;99.90;;;;;;5081197;28;20052;-69
2022/08/29 11:15:47;;;;;;;1.60;1.15;;;15.40;99.90;;;;;;5079226;28;20060;-74
2022/08/29 11:18:33;;;;;;;3.47;1.50;;;15.40;99.90;;;;;;5061780;28;20163;-72
2022/08/29 11:21:28;;;;;;;5.20;1.80;;;15.40;99.90;;;;;;5083663;28;20051;-70
2022/08/29 11:23:57;;;;;;;3.90;1.80;;;15.50;99.90;;;;;;5076142;28;20044;-68
2022/08/29 11:26:30;;;;;;;2.20;1.10;;;15.50;99.90;;;;;;5081550;28;20146;-70
2022/08/29 11:29:10;;;;;;;3.85;1.70;;;15.60;99.90;;;;;;5082194;28;20047;-67
2022/08/29 11:31:46;;;;;;;5.47;3.20;;;15.60;99.90;;;;;;5082290;28;20067;-70
2022/08/29 11:34:26;;;;;;;5.10;1.30;;;15.60;99.90;;;;;;5079068;28;20114;-67
2022/08/29 11:37:30;;;;;;;3.05;1.00;;;15.60;99.90;;;;;;5081061;28;20039;-68
2022/08/29 11:40:13;;;;;;;3.67;1.52;;;15.60;99.90;;;;;;5079820;28;20042;-72
2022/08/29 11:42:43;;;;;;;2.05;1.35;;;15.50;99.90;;;;;;5065659;28;20106;-70
2022/08/29 11:45:26;;;;;;;2.28;1.10;;;15.50;99.90;;;;;;5083219;28;20146;-68
2022/08/29 11:48:27;;;;;;;8.65;1.67;;;15.40;99.90;;;;;;5084671;28;20116;-68
2022/08/29 11:50:54;;;;;;;6.60;1.50;;;15.50;99.90;;;;;;5085763;28;20109;-71
2022/08/29 11:53:32;;;;;;;5.55;1.80;;;15.50;99.90;;;;;;5089229;28;20039;-67
2022/08/29 11:56:11;;;;;;;3.90;1.30;;;15.40;99.90;;;;;;5085439;28;20134;-68
2022/08/29 11:58:44;;;;;;;4.68;1.33;;;15.40;99.90;;;;;;5041377;28;20364;-67
2022/08/29 12:01:35;;;;;;;5.57;1.35;;;15.40;99.90;;;;;;5057226;28;20042;-72
2022/08/29 12:04:10;;;;;;;4.68;1.42;;;15.40;99.90;;;;;;5079297;28;20109;-68
2022/08/29 12:06:59;;;;;;;7.55;1.80;;;15.40;99.90;;;;;;5087946;28;20549;-69
2022/08/29 12:09:45;;;;;;;3.00;1.88;;;15.40;99.90;;;;;;5088249;28;20051;-70
2022/08/29 12:12:16;;;;;;;4.78;2.40;;;15.40;99.90;;;;;;5085438;28;20522;-67
2022/08/29 12:14:51;;;;;;;4.15;1.38;;;15.40;99.90;;;;;;5083943;28;20055;-68
2022/08/29 12:17:21;;;;;;;3.88;1.27;;;15.40;99.90;;;;;;5083915;28;20119;-68
2022/08/29 12:19:52;;;;;;;3.45;1.30;;;15.40;99.90;;;;;;5092067;27;20056;-72
2022/08/29 12:23:11;;;;;;;4.85;1.77;;;15.40;99.90;;;;;;5089646;28;20047;-69
2022/08/29 12:25:44;;;;;;;5.43;2.22;;;15.40;99.90;;;;;;5037660;28;20472;-73
2022/08/29 12:28:17;;;;;;;6.53;1.67;;;15.40;99.90;;;;;;5090096;28;20051;-68
2022/08/29 12:30:48;;;;;;;4.18;1.42;;;15.40;99.90;;;;;;5082566;28;20044;-70
2022/08/29 12:33:44;;;;;;;6.28;1.48;;;15.40;99.90;;;;;;5094593;27;20054;-75
2022/08/29 12:36:42;;;;;;;2.95;1.08;;;15.40;99.90;;;;;;5087617;28;20105;-67
2022/08/29 12:39:43;;;;;;;6.25;1.90;;;15.50;99.90;;;;;;5085141;28;20464;-72
2022/08/29 12:42:27;;;;;;;3.92;1.13;;;15.50;99.90;;;;;;5089670;28;20513;-67
2022/08/29 12:45:00;;;;;;;3.28;1.30;;;15.60;99.90;;;;;;5080082;28;20097;-72
2022/08/29 12:47:34;;;;;;;5.88;2.47;;;15.60;99.90;;;;;;5083795;28;20109;-69
2022/08/29 12:50:12;;;;;;;2.67;0.85;;;15.70;99.90;;;;;;5085575;28;20048;-69
2022/08/29 12:52:39;;;;;;;5.55;1.20;;;15.70;99.90;;;;;;5082319;28;20047;-69
2022/08/29 12:55:23;;;;;;;3.13;0.75;;;15.80;99.90;;;;;;5087214;28;20067;-68
2022/08/29 12:57:56;;;;;;;1.35;0.60;;;15.80;99.90;;;;;;5087808;28;20078;-71
2022/08/29 13:00:27;;;;;;;5.55;0.60;;;15.80;99.90;;;;;;5083846;28;20512;-71
2022/08/29 13:03:06;;;;;;;2.30;1.05;;;15.90;99.90;;;;;;5082253;28;20048;-74
2022/08/29 13:05:41;;;;;;;2.22;1.42;;;15.90;99.90;;;;;;5082586;28;20082;-70
2022/08/29 13:08:13;;;;;;;1.38;1.15;;;15.90;99.90;;;;;;5089052;27;20071;-71
2022/08/29 13:10:56;;;;;;;4.72;1.10;;;15.90;99.90;;;;;;5084102;28;20115;-68
2022/08/29 13:13:24;;;;;;;3.05;1.20;;;15.90;99.90;;;;;;5083209;28;20470;-68
2022/08/29 13:15:53;;;;;;;3.25;1.02;;;15.90;99.90;;;;;;5085673;28;20048;-71
2022/08/29 13:18:22;;;;;;;3.20;1.02;;;15.90;99.90;;;;;;5086511;28;20388;-68